Time;durP1;ratioP1;P1;durP2;ratioP2;P2;SDS_P1;SDS_P2;PMS_P1;PMS_P2;Temp;Humidity;BMP_temperature;BMP_pressure;BME280_temperature;BME280_humidity;BME280_pressure;Samples;Min_cycle;Max_cycle;Signal;HPM_P1;HPM_P2
2022/10/16 00:02:00;;;;;;;8.13;3.10;;;17.70;72.50;;;;;;4954426;28;20222;-95
2022/10/16 00:04:37;;;;;;;4.63;2.10;;;17.60;72.40;;;;;;4940703;28;20673;-93
2022/10/16 00:07:04;;;;;;;8.90;2.43;;;17.60;72.60;;;;;;4937644;28;20204;-94
2022/10/16 00:09:31;;;;;;;9.07;3.60;;;17.60;72.50;;;;;;4955138;28;20231;-94
2022/10/16 00:12:14;;;;;;;8.20;3.00;;;17.50;72.30;;;;;;4941101;28;20627;-94
2022/10/16 00:14:48;;;;;;;5.93;2.03;;;17.50;72.70;;;;;;4935878;29;20255;-95
2022/10/16 00:17:18;;;;;;;6.73;2.73;;;17.50;72.80;;;;;;4942586;29;20301;-95
2022/10/16 00:19:49;;;;;;;5.27;2.17;;;17.50;72.90;;;;;;4935717;29;20239;-95
2022/10/16 00:22:16;;;;;;;4.97;2.23;;;17.50;73.10;;;;;;4946508;28;20204;-95
2022/10/16 00:24:50;;;;;;;9.97;3.50;;;17.50;72.90;;;;;;5018592;28;20218;-94
2022/10/16 00:27:18;;;;;;;6.30;2.73;;;17.50;73.20;;;;;;4954607;28;20299;-93
2022/10/16 00:30:00;;;;;;;5.27;2.33;;;17.50;73.10;;;;;;4935624;29;20209;-94
2022/10/16 00:32:30;;;;;;;5.47;2.07;;;17.40;73.60;;;;;;4951977;29;20204;-95
2022/10/16 00:35:00;;;;;;;8.43;3.10;;;17.40;73.40;;;;;;4942259;28;20311;-95
2022/10/16 00:37:30;;;;;;;4.77;2.17;;;17.40;73.50;;;;;;4946649;28;20215;-94
2022/10/16 00:39:57;;;;;;;9.77;3.30;;;17.40;73.40;;;;;;4940485;28;20232;-94
2022/10/16 00:42:25;;;;;;;7.77;2.80;;;17.30;73.20;;;;;;4960585;28;20816;-91
2022/10/16 00:44:57;;;;;;;8.50;2.13;;;17.30;73.70;;;;;;4952301;28;20986;-93
2022/10/16 00:47:29;;;;;;;6.73;2.60;;;17.30;74.00;;;;;;4951773;28;20220;-92
2022/10/16 00:50:08;;;;;;;7.63;2.80;;;17.30;74.00;;;;;;4957424;29;20224;-94
2022/10/16 00:52:44;;;;;;;9.70;3.13;;;17.30;74.10;;;;;;4942650;29;20886;-94
2022/10/16 00:55:15;;;;;;;9.13;3.13;;;17.30;74.50;;;;;;4950474;29;20673;-94
2022/10/16 00:57:46;;;;;;;9.03;2.37;;;17.20;74.20;;;;;;4950578;29;20212;-94
2022/10/16 01:00:24;;;;;;;8.03;2.77;;;17.20;74.70;;;;;;4940297;29;20617;-95
2022/10/16 01:02:56;;;;;;;5.67;2.20;;;17.10;74.90;;;;;;5005764;28;20262;-95
2022/10/16 01:05:28;;;;;;;7.30;2.20;;;17.20;75.20;;;;;;4946291;29;20208;-95
2022/10/16 01:08:11;;;;;;;7.40;2.90;;;17.10;75.30;;;;;;5005834;28;20204;-91
2022/10/16 01:10:46;;;;;;;8.53;2.90;;;17.10;76.10;;;;;;4937114;29;20216;-93
2022/10/16 01:13:21;;;;;;;7.17;2.57;;;17.10;75.80;;;;;;4942538;29;20215;-95
2022/10/16 01:15:57;;;;;;;11.50;3.73;;;17.10;76.00;;;;;;4951545;28;20202;-93
2022/10/16 01:21:26;;;;;;;5.67;2.17;;;17.10;76.40;;;;;;4943541;28;20204;-95
2022/10/16 01:24:02;;;;;;;7.43;2.20;;;17.10;76.70;;;;;;4943360;29;20209;-92
2022/10/16 01:26:54;;;;;;;9.87;3.27;;;17.10;77.20;;;;;;4941589;28;20745;-96
2022/10/16 01:29:49;;;;;;;8.10;2.50;;;17.10;77.50;;;;;;4956407;29;20209;-96
2022/10/16 01:32:22;;;;;;;7.97;2.33;;;17.10;77.90;;;;;;4961228;29;20205;-95
2022/10/16 01:35:31;;;;;;;7.17;2.37;;;17.10;77.60;;;;;;4974781;28;20215;-95
2022/10/16 01:38:04;;;;;;;4.03;1.53;;;17.10;78.20;;;;;;4960862;28;20197;-96
2022/10/16 01:40:48;;;;;;;5.33;1.90;;;17.10;77.60;;;;;;4944020;28;20768;-96
2022/10/16 01:43:19;;;;;;;6.90;1.90;;;17.10;78.20;;;;;;4955298;29;20219;-94
2022/10/16 01:45:54;;;;;;;5.27;2.07;;;17.10;77.90;;;;;;4959839;29;20204;-95
2022/10/16 01:48:37;;;;;;;6.63;2.43;;;17.10;78.50;;;;;;4955655;29;20212;-96
2022/10/16 01:51:13;;;;;;;6.80;2.30;;;17.10;78.40;;;;;;4941592;28;20356;-93
2022/10/16 01:53:44;;;;;;;7.03;2.60;;;17.00;78.20;;;;;;4949501;29;20211;-94
2022/10/16 01:56:20;;;;;;;6.40;2.47;;;17.10;78.20;;;;;;4958591;29;20234;-96
2022/10/16 01:58:54;;;;;;;4.13;1.70;;;17.10;78.90;;;;;;4957488;29;20224;-95
2022/10/16 02:01:36;;;;;;;4.87;1.90;;;17.00;78.40;;;;;;4962933;28;20221;-96
2022/10/16 02:04:22;;;;;;;7.27;2.13;;;17.10;79.30;;;;;;4958003;29;20207;-94
2022/10/16 02:06:51;;;;;;;5.00;1.67;;;17.10;79.30;;;;;;4946970;28;20203;-95
2022/10/16 02:09:22;;;;;;;10.33;3.03;;;17.10;78.80;;;;;;4960956;28;20215;-96
2022/10/16 02:12:06;;;;;;;5.50;1.67;;;17.10;79.20;;;;;;4957204;29;20253;-94
2022/10/16 02:14:38;;;;;;;8.07;2.20;;;17.10;79.20;;;;;;4960141;28;20213;-94
2022/10/16 02:17:13;;;;;;;9.03;2.57;;;17.10;79.20;;;;;;4973606;28;20208;-94
2022/10/16 02:19:43;;;;;;;2.63;1.30;;;17.00;79.50;;;;;;4956603;28;20264;-93
2022/10/16 02:22:20;;;;;;;4.87;1.73;;;17.10;79.30;;;;;;4960926;29;20651;-96
2022/10/16 02:24:58;;;;;;;3.03;1.40;;;17.10;79.80;;;;;;4962266;29;20667;-95
2022/10/16 02:27:34;;;;;;;9.33;2.77;;;17.10;80.00;;;;;;4942422;29;20201;-93
2022/10/16 02:33:23;;;;;;;9.83;3.13;;;17.10;79.90;;;;;;4959974;28;20227;-94
2022/10/16 02:35:54;;;;;;;7.13;2.67;;;17.00;79.60;;;;;;4941361;28;20659;-94
2022/10/16 02:38:24;;;;;;;7.07;2.07;;;17.00;79.50;;;;;;4945799;28;20674;-94
2022/10/16 02:40:52;;;;;;;5.20;1.90;;;17.00;79.30;;;;;;4942811;29;20294;-93
2022/10/16 02:43:27;;;;;;;8.23;2.37;;;17.00;79.30;;;;;;4944081;28;20208;-94
2022/10/16 02:45:56;;;;;;;8.03;2.80;;;17.00;79.90;;;;;;5025436;28;20721;-93
2022/10/16 02:48:31;;;;;;;6.67;2.57;;;17.00;79.70;;;;;;4949094;28;20634;-96
2022/10/16 02:50:58;;;;;;;9.03;2.90;;;17.00;80.00;;;;;;4940328;28;20215;-92
2022/10/16 02:53:30;;;;;;;6.47;2.20;;;17.00;79.40;;;;;;4946020;28;20307;-95
2022/10/16 02:56:05;;;;;;;9.53;3.30;;;17.00;79.50;;;;;;4938355;29;20216;-93
2022/10/16 02:58:34;;;;;;;6.80;2.30;;;16.90;80.10;;;;;;4937666;29;20215;-94
2022/10/16 03:01:16;;;;;;;8.40;2.53;;;16.90;79.30;;;;;;4945359;28;20302;-93
2022/10/16 03:03:47;;;;;;;8.03;2.60;;;16.90;79.80;;;;;;4949188;29;20209;-94
2022/10/16 03:06:15;;;;;;;7.33;2.40;;;16.90;79.90;;;;;;4952017;29;20214;-93
2022/10/16 03:08:45;;;;;;;7.47;2.57;;;16.90;80.10;;;;;;4954811;28;20253;-93
2022/10/16 03:11:12;;;;;;;3.37;1.50;;;16.90;80.00;;;;;;4939655;29;20212;-94
2022/10/16 03:13:48;;;;;;;9.27;2.53;;;16.80;80.00;;;;;;4950081;28;20555;-96
2022/10/16 03:16:16;;;;;;;3.97;1.77;;;16.80;80.80;;;;;;4951012;28;20203;-95
2022/10/16 03:18:53;;;;;;;7.70;2.63;;;16.80;80.30;;;;;;4954350;29;20250;-93
2022/10/16 03:21:22;;;;;;;7.83;2.70;;;16.80;81.10;;;;;;4956883;29;20231;-92
2022/10/16 03:23:50;;;;;;;7.23;2.50;;;16.70;80.30;;;;;;4945052;28;20232;-91
2022/10/16 03:26:17;;;;;;;7.40;2.57;;;16.80;80.90;;;;;;4939387;29;20833;-92
2022/10/16 03:28:46;;;;;;;8.37;2.60;;;16.70;80.70;;;;;;5020211;28;20271;-93
2022/10/16 03:31:16;;;;;;;5.47;2.00;;;16.70;80.70;;;;;;4955396;28;20635;-93
2022/10/16 03:33:43;;;;;;;6.87;2.60;;;16.80;80.80;;;;;;4941482;29;20205;-94
2022/10/16 03:36:11;;;;;;;7.23;2.60;;;16.70;80.80;;;;;;4945927;29;20273;-93
2022/10/16 03:38:38;;;;;;;7.43;2.50;;;16.70;81.20;;;;;;4951539;29;20712;-92
2022/10/16 03:41:08;;;;;;;4.67;1.83;;;16.70;81.00;;;;;;4955258;29;20227;-94
2022/10/16 03:43:35;;;;;;;7.83;2.70;;;16.70;81.40;;;;;;4953821;29;20231;-93
2022/10/16 03:46:08;;;;;;;6.53;2.00;;;16.60;81.10;;;;;;4957285;29;20233;-92
2022/10/16 03:48:44;;;;;;;7.70;2.90;;;16.60;81.80;;;;;;4955070;29;20209;-95
2022/10/16 03:51:12;;;;;;;9.30;3.43;;;16.60;81.50;;;;;;4940958;29;20239;-93
2022/10/16 03:53:42;;;;;;;7.27;2.77;;;16.60;81.60;;;;;;4953630;29;20212;-95
2022/10/16 03:56:11;;;;;;;6.87;2.30;;;16.60;81.40;;;;;;4936917;28;20242;-93
2022/10/16 03:58:40;;;;;;;12.13;3.67;;;16.60;81.80;;;;;;4936399;29;20286;-93
2022/10/16 04:01:09;;;;;;;5.67;2.10;;;16.60;81.80;;;;;;4949930;28;20263;-94
2022/10/16 04:06:28;;;;;;;5.23;1.83;;;16.50;81.50;;;;;;4973572;28;20195;-95
2022/10/16 04:09:05;;;;;;;4.83;1.87;;;16.50;82.50;;;;;;5005317;22;20652;-96
2022/10/16 04:11:45;;;;;;;9.03;2.37;;;16.50;81.90;;;;;;4962042;28;20298;-96
2022/10/16 04:14:13;;;;;;;5.80;1.97;;;16.50;82.50;;;;;;4961213;28;20203;-94
2022/10/16 04:16:40;;;;;;;5.10;1.97;;;16.50;82.50;;;;;;4958354;28;20291;-95
2022/10/16 04:19:24;;;;;;;1.80;1.07;;;16.50;82.20;;;;;;4974806;28;20216;-96
2022/10/16 04:22:25;;;;;;;8.63;2.70;;;16.50;83.30;;;;;;4976713;28;20710;-96
2022/10/16 04:24:52;;;;;;;10.63;2.30;;;16.50;83.40;;;;;;4973842;28;20239;-92
2022/10/16 04:27:21;;;;;;;8.53;2.67;;;16.50;82.10;;;;;;4963464;28;20267;-93
2022/10/16 04:29:52;;;;;;;6.03;2.23;;;16.50;82.60;;;;;;4960976;28;20255;-94
2022/10/16 04:32:23;;;;;;;11.30;3.40;;;16.50;82.60;;;;;;4960533;28;20340;-92
2022/10/16 04:34:53;;;;;;;7.90;2.63;;;16.50;82.80;;;;;;4976326;28;20210;-92
2022/10/16 04:37:29;;;;;;;9.83;3.00;;;16.50;82.30;;;;;;4968687;28;20204;-92
2022/10/16 04:40:07;;;;;;;8.03;1.80;;;16.50;82.80;;;;;;4960169;29;20188;-92
2022/10/16 04:42:36;;;;;;;9.17;2.97;;;16.50;82.00;;;;;;4955251;28;20575;-94
2022/10/16 04:45:07;;;;;;;7.47;2.43;;;16.50;82.10;;;;;;4954186;29;20239;-93
2022/10/16 04:47:35;;;;;;;6.20;1.83;;;16.50;82.30;;;;;;4959118;28;20202;-92
2022/10/16 04:50:11;;;;;;;7.43;2.33;;;16.50;82.40;;;;;;4962223;29;20192;-95
2022/10/16 04:52:40;;;;;;;7.17;2.13;;;16.40;83.00;;;;;;4956174;28;20206;-93
2022/10/16 04:55:09;;;;;;;7.47;2.13;;;16.40;83.00;;;;;;4955848;29;20992;-92
2022/10/16 04:57:42;;;;;;;8.33;2.50;;;16.40;82.90;;;;;;4957349;28;20239;-95
2022/10/16 05:00:18;;;;;;;12.00;3.37;;;16.40;83.80;;;;;;4955254;28;20307;-93
2022/10/16 05:02:46;;;;;;;8.77;2.90;;;16.40;83.40;;;;;;4961650;28;20303;-93
2022/10/16 05:05:19;;;;;;;4.50;1.97;;;16.40;83.80;;;;;;4961500;29;20194;-90
2022/10/16 05:07:50;;;;;;;7.57;2.20;;;16.40;83.80;;;;;;4952147;28;20211;-94
2022/10/16 05:10:18;;;;;;;9.10;3.17;;;16.40;83.80;;;;;;4951005;28;20214;-93
2022/10/16 05:12:48;;;;;;;8.97;2.33;;;16.40;83.90;;;;;;4957555;29;20294;-96
2022/10/16 05:15:33;;;;;;;10.23;3.17;;;16.40;83.90;;;;;;4958624;28;20211;-96
2022/10/16 05:18:02;;;;;;;13.17;3.77;;;16.40;84.00;;;;;;4954205;28;20548;-94
2022/10/16 05:20:33;;;;;;;5.33;1.97;;;16.40;83.90;;;;;;4956353;28;20273;-93
2022/10/16 05:23:03;;;;;;;9.43;3.00;;;16.40;83.90;;;;;;4957228;28;20271;-94
2022/10/16 05:25:34;;;;;;;6.27;2.27;;;16.40;84.20;;;;;;4959919;29;20222;-95
2022/10/16 05:28:15;;;;;;;5.17;2.03;;;16.40;84.30;;;;;;4956834;28;20229;-94
2022/10/16 05:30:45;;;;;;;7.97;2.50;;;16.40;84.50;;;;;;4953245;29;20693;-93
2022/10/16 05:33:16;;;;;;;8.80;2.63;;;16.50;84.00;;;;;;4958718;29;20215;-93
2022/10/16 05:35:46;;;;;;;13.73;3.63;;;16.40;84.50;;;;;;4954615;28;20260;-93
2022/10/16 05:38:15;;;;;;;9.10;2.70;;;16.50;84.20;;;;;;4945601;28;20207;-95
2022/10/16 05:40:52;;;;;;;9.67;2.87;;;16.50;84.50;;;;;;4936561;28;20239;-96
2022/10/16 05:43:21;;;;;;;7.83;2.87;;;16.50;84.90;;;;;;4944300;28;20224;-94
2022/10/16 05:45:55;;;;;;;9.40;3.23;;;16.50;84.40;;;;;;4954213;28;20421;-92
2022/10/16 05:48:27;;;;;;;7.27;2.37;;;16.50;84.60;;;;;;4955529;28;20657;-93
2022/10/16 05:50:59;;;;;;;8.87;2.77;;;16.50;84.10;;;;;;4959756;29;20211;-93
2022/10/16 05:53:35;;;;;;;7.70;2.20;;;16.60;84.70;;;;;;4956392;28;20205;-95
2022/10/16 05:56:06;;;;;;;11.90;3.53;;;16.50;84.70;;;;;;4963865;28;20200;-95
2022/10/16 05:58:40;;;;;;;8.47;2.23;;;16.60;84.30;;;;;;4941849;28;20207;-94
2022/10/16 06:01:12;;;;;;;6.60;1.90;;;16.60;84.50;;;;;;4947316;29;20229;-95
2022/10/16 06:03:43;;;;;;;5.67;1.97;;;16.60;84.20;;;;;;4957263;29;20212;-95
2022/10/16 06:06:16;;;;;;;9.73;2.67;;;16.60;84.10;;;;;;4954077;28;20204;-94
2022/10/16 06:08:55;;;;;;;11.77;2.87;;;16.60;84.20;;;;;;4956172;28;20223;-95
2022/10/16 06:11:29;;;;;;;10.37;3.10;;;16.60;84.10;;;;;;4958858;28;20218;-95
2022/10/16 06:14:01;;;;;;;6.93;2.50;;;16.60;84.10;;;;;;4954192;29;20553;-93
2022/10/16 06:16:28;;;;;;;11.20;3.30;;;16.60;84.10;;;;;;4949443;29;21259;-90
2022/10/16 06:19:00;;;;;;;13.80;3.93;;;16.60;84.10;;;;;;5012253;28;20299;-93
2022/10/16 06:21:30;;;;;;;13.40;4.20;;;16.60;84.10;;;;;;4953173;28;20235;-92
2022/10/16 06:24:03;;;;;;;14.30;4.07;;;16.60;84.20;;;;;;4962652;28;20669;-91
2022/10/16 06:26:32;;;;;;;8.13;2.53;;;16.60;84.20;;;;;;4959805;28;20283;-93
2022/10/16 06:29:02;;;;;;;19.00;5.20;;;16.60;84.20;;;;;;4969740;28;20220;-92
2022/10/16 06:31:33;;;;;;;8.13;2.10;;;16.60;84.20;;;;;;5028811;28;20269;-93
2022/10/16 06:34:01;;;;;;;12.97;3.27;;;16.60;84.10;;;;;;4959975;28;20214;-92
2022/10/16 06:36:29;;;;;;;9.40;3.33;;;16.50;83.90;;;;;;4957000;28;20211;-93
2022/10/16 06:38:58;;;;;;;11.07;2.93;;;16.60;84.20;;;;;;4958064;28;20247;-92
2022/10/16 06:41:25;;;;;;;11.20;3.30;;;16.60;84.30;;;;;;4955783;28;20251;-90
2022/10/16 06:43:54;;;;;;;11.97;3.07;;;16.60;84.20;;;;;;5027223;28;20328;-90
2022/10/16 06:46:24;;;;;;;5.10;2.03;;;16.60;84.10;;;;;;4964870;28;20271;-92
2022/10/16 06:48:59;;;;;;;11.73;3.67;;;16.60;84.30;;;;;;4962569;28;20207;-89
2022/10/16 06:51:36;;;;;;;10.43;2.90;;;16.60;84.70;;;;;;4967574;28;20199;-93
2022/10/16 06:54:11;;;;;;;15.53;4.63;;;16.60;84.30;;;;;;4954769;28;20206;-91
2022/10/16 06:56:42;;;;;;;13.07;3.60;;;16.60;84.50;;;;;;4956356;28;20746;-90
2022/10/16 06:59:09;;;;;;;12.57;3.27;;;16.50;84.10;;;;;;4948684;28;20211;-92
2022/10/16 07:01:36;;;;;;;11.03;3.67;;;16.50;84.10;;;;;;4955299;28;20900;-92
2022/10/16 07:04:03;;;;;;;10.90;3.30;;;16.50;84.30;;;;;;4964783;28;20281;-91
2022/10/16 07:06:34;;;;;;;12.27;3.73;;;16.50;84.60;;;;;;4957304;28;20211;-91
2022/10/16 07:09:08;;;;;;;16.50;4.63;;;16.50;85.00;;;;;;4952104;28;20222;-92
2022/10/16 07:11:38;;;;;;;7.77;2.87;;;16.50;85.20;;;;;;4958732;28;20265;-92
2022/10/16 07:14:06;;;;;;;25.70;7.33;;;16.50;85.40;;;;;;4952786;28;20322;-91
2022/10/16 07:16:34;;;;;;;9.97;3.20;;;16.50;85.20;;;;;;4958176;28;20531;-91
2022/10/16 07:19:03;;;;;;;13.87;4.20;;;16.50;85.30;;;;;;4954930;28;21562;-90
2022/10/16 07:21:35;;;;;;;9.67;2.60;;;16.50;85.50;;;;;;4962683;28;20291;-93
2022/10/16 07:24:10;;;;;;;11.23;3.47;;;16.50;85.60;;;;;;4979259;28;20206;-91
2022/10/16 07:26:39;;;;;;;13.33;3.03;;;16.60;85.80;;;;;;4960531;29;20230;-94
2022/10/16 07:29:07;;;;;;;11.63;3.23;;;16.60;85.80;;;;;;4959284;28;20227;-92
2022/10/16 07:31:34;;;;;;;10.27;3.20;;;16.60;86.00;;;;;;4950086;28;20243;-92
2022/10/16 07:34:01;;;;;;;11.90;3.33;;;16.60;85.80;;;;;;4950589;29;20295;-92
2022/10/16 07:36:31;;;;;;;11.30;2.90;;;16.60;86.10;;;;;;4951716;28;20254;-95
2022/10/16 07:38:59;;;;;;;12.67;4.10;;;16.60;86.70;;;;;;4947109;29;20275;-92
2022/10/16 07:41:29;;;;;;;14.77;4.23;;;16.60;86.20;;;;;;4951337;29;20232;-93
2022/10/16 07:43:59;;;;;;;10.57;3.50;;;16.60;86.70;;;;;;4946867;28;20232;-92
2022/10/16 07:46:27;;;;;;;8.27;2.43;;;16.60;86.70;;;;;;4951171;28;20810;-92
2022/10/16 07:48:54;;;;;;;9.33;2.67;;;16.60;86.70;;;;;;4949431;28;20281;-92
2022/10/16 07:51:25;;;;;;;12.33;3.00;;;16.70;86.60;;;;;;4951665;28;20550;-91
2022/10/16 07:54:02;;;;;;;10.90;3.47;;;16.70;87.20;;;;;;4950026;28;20208;-93
2022/10/16 07:56:32;;;;;;;8.27;2.77;;;16.80;87.50;;;;;;4952801;28;20211;-93
2022/10/16 07:58:59;;;;;;;18.23;4.70;;;16.80;87.70;;;;;;4953142;28;20282;-91
2022/10/16 08:01:27;;;;;;;8.70;2.60;;;16.80;87.70;;;;;;4954938;28;20227;-95
2022/10/16 08:03:59;;;;;;;10.07;3.10;;;16.90;88.70;;;;;;4965754;28;20224;-94
2022/10/16 08:06:38;;;;;;;7.60;2.33;;;17.00;88.40;;;;;;4959848;29;20215;-92
2022/10/16 08:09:12;;;;;;;10.63;3.37;;;17.00;88.10;;;;;;4953998;28;20213;-92
2022/10/16 08:11:41;;;;;;;9.10;2.80;;;17.20;87.50;;;;;;4950891;29;20212;-91
2022/10/16 08:14:08;;;;;;;13.43;3.83;;;17.30;87.30;;;;;;4951746;29;20298;-91
2022/10/16 08:16:41;;;;;;;12.87;4.07;;;17.40;86.70;;;;;;4949188;28;20618;-91
2022/10/16 08:19:08;;;;;;;13.20;4.13;;;17.50;86.30;;;;;;4950282;28;20210;-91
2022/10/16 08:21:39;;;;;;;17.40;5.37;;;17.60;85.60;;;;;;4960518;29;20234;-91
2022/10/16 08:24:09;;;;;;;6.03;2.30;;;17.60;85.40;;;;;;4951713;28;20211;-94
2022/10/16 08:26:39;;;;;;;6.47;2.33;;;17.70;85.50;;;;;;4964750;28;20214;-92
2022/10/16 08:29:11;;;;;;;11.00;2.33;;;17.80;85.40;;;;;;4963490;29;20209;-93
2022/10/16 08:31:38;;;;;;;9.10;3.03;;;17.80;85.40;;;;;;4959958;28;20209;-91
2022/10/16 08:34:08;;;;;;;8.47;2.20;;;17.90;85.30;;;;;;4951669;29;20202;-93
2022/10/16 08:36:41;;;;;;;8.93;2.80;;;18.00;85.60;;;;;;4937446;29;20221;-93
2022/10/16 08:39:08;;;;;;;8.13;1.93;;;18.10;85.90;;;;;;4953007;28;20245;-92
2022/10/16 08:42:12;;;;;;;11.93;3.10;;;18.20;85.50;;;;;;4950787;29;20227;-90
2022/10/16 08:45:22;;;;;;;10.37;3.33;;;18.40;85.10;;;;;;4953145;28;20297;-93
2022/10/16 08:47:55;;;;;;;7.53;2.73;;;18.50;84.60;;;;;;4930926;28;20204;-92
2022/10/16 08:50:26;;;;;;;8.13;2.50;;;18.70;84.20;;;;;;4951180;29;20208;-94
2022/10/16 08:52:55;;;;;;;7.07;2.37;;;18.90;83.90;;;;;;4956899;28;20223;-92
2022/10/16 08:55:33;;;;;;;5.90;2.27;;;19.00;84.00;;;;;;4960341;28;20638;-93
2022/10/16 08:58:02;;;;;;;12.80;4.13;;;19.20;82.40;;;;;;4939395;29;20208;-94
2022/10/16 09:00:41;;;;;;;13.93;4.17;;;19.40;81.70;;;;;;4952341;28;20223;-93
2022/10/16 09:03:17;;;;;;;7.93;2.80;;;19.50;80.00;;;;;;4952429;28;20246;-92
2022/10/16 09:05:58;;;;;;;10.63;3.37;;;19.70;79.20;;;;;;4948425;29;20216;-93
2022/10/16 09:08:36;;;;;;;14.83;4.80;;;19.80;78.80;;;;;;4951385;28;20311;-91
2022/10/16 09:11:12;;;;;;;12.03;3.70;;;19.90;78.30;;;;;;4941177;29;20306;-92
2022/10/16 09:13:51;;;;;;;13.73;3.67;;;19.90;77.70;;;;;;4953891;28;20278;-91
2022/10/16 09:16:25;;;;;;;8.67;2.20;;;20.00;78.00;;;;;;4969936;28;20206;-91
2022/10/16 09:19:01;;;;;;;12.07;3.27;;;20.00;77.50;;;;;;4955544;28;20644;-92
2022/10/16 09:21:31;;;;;;;7.37;2.60;;;20.10;77.10;;;;;;4953790;29;20211;-92
2022/10/16 09:24:01;;;;;;;13.17;4.30;;;20.10;77.50;;;;;;4957431;28;20298;-91
2022/10/16 09:26:29;;;;;;;6.47;2.20;;;20.20;77.40;;;;;;4955317;29;20210;-91
2022/10/16 09:28:57;;;;;;;13.13;2.97;;;20.20;77.20;;;;;;4957216;28;20219;-91
2022/10/16 09:31:27;;;;;;;18.70;3.47;;;20.30;77.50;;;;;;4952791;29;20257;-91
2022/10/16 09:34:00;;;;;;;10.77;3.63;;;20.40;77.40;;;;;;4951545;29;20243;-91
2022/10/16 09:36:30;;;;;;;11.23;3.83;;;20.40;76.70;;;;;;4953139;28;20607;-92
2022/10/16 09:39:06;;;;;;;11.23;3.53;;;20.50;76.50;;;;;;4950620;28;20211;-91
2022/10/16 09:41:36;;;;;;;9.33;3.07;;;20.60;76.40;;;;;;4950700;29;20210;-92
2022/10/16 09:44:06;;;;;;;8.63;2.87;;;20.70;76.60;;;;;;4949910;28;20291;-91
2022/10/16 09:46:37;;;;;;;9.63;3.03;;;20.80;77.20;;;;;;4954657;29;20243;-91
2022/10/16 09:49:22;;;;;;;12.67;4.10;;;21.00;76.70;;;;;;4948858;29;20227;-91
2022/10/16 09:51:50;;;;;;;9.57;3.10;;;21.10;76.50;;;;;;4951645;29;20281;-92
2022/10/16 09:54:21;;;;;;;12.43;3.80;;;21.30;77.30;;;;;;4951086;29;20227;-91
2022/10/16 09:56:51;;;;;;;10.60;3.13;;;21.50;76.30;;;;;;4950143;29;21165;-91
2022/10/16 09:59:21;;;;;;;11.13;3.57;;;21.70;75.20;;;;;;4951568;28;20312;-89
2022/10/16 10:02:00;;;;;;;8.23;3.20;;;21.80;74.30;;;;;;4948558;28;20242;-90
2022/10/16 10:04:40;;;;;;;11.37;3.40;;;22.00;73.20;;;;;;4949409;29;20318;-90
2022/10/16 10:07:18;;;;;;;9.00;2.57;;;22.20;72.20;;;;;;4954578;28;20265;-92
2022/10/16 10:09:46;;;;;;;6.83;2.20;;;22.30;73.40;;;;;;4961948;28;20250;-90
2022/10/16 10:12:23;;;;;;;7.27;2.33;;;22.50;72.60;;;;;;4966894;29;20201;-93
2022/10/16 10:14:53;;;;;;;15.90;3.47;;;22.60;71.90;;;;;;4956687;28;20216;-93
2022/10/16 10:17:25;;;;;;;7.13;2.37;;;22.70;70.90;;;;;;4954574;28;20296;-92
2022/10/16 10:19:55;;;;;;;13.37;3.53;;;22.80;70.60;;;;;;4950276;28;20297;-91
2022/10/16 10:22:30;;;;;;;9.67;3.20;;;22.90;70.50;;;;;;4950567;29;20268;-92
2022/10/16 10:25:29;;;;;;;7.20;2.33;;;23.00;69.70;;;;;;4937895;28;20242;-92
2022/10/16 10:28:41;;;;;;;10.40;3.70;;;23.10;68.60;;;;;;4955162;28;20249;-93
2022/10/16 10:31:15;;;;;;;9.33;3.03;;;23.20;67.60;;;;;;4973832;28;20203;-92
2022/10/16 10:33:51;;;;;;;10.60;3.63;;;23.30;68.40;;;;;;4962666;28;20695;-92
2022/10/16 10:36:29;;;;;;;7.50;2.73;;;23.30;68.10;;;;;;4951044;28;20259;-92
2022/10/16 10:39:01;;;;;;;9.30;2.77;;;23.40;67.60;;;;;;4935819;29;20218;-92
2022/10/16 10:42:12;;;;;;;13.43;3.77;;;23.40;67.40;;;;;;4950591;29;20191;-92
2022/10/16 10:44:58;;;;;;;11.63;3.43;;;23.50;66.80;;;;;;4936756;28;20937;-92
2022/10/16 10:47:41;;;;;;;9.97;2.83;;;23.50;66.30;;;;;;4951750;28;20219;-93
2022/10/16 10:50:22;;;;;;;8.70;2.70;;;23.60;66.00;;;;;;4996733;28;20995;-92
2022/10/16 10:52:58;;;;;;;9.40;3.03;;;23.60;65.40;;;;;;4947686;29;20214;-90
2022/10/16 10:55:35;;;;;;;6.53;2.70;;;23.60;66.10;;;;;;4949841;29;20211;-93
2022/10/16 10:58:40;;;;;;;9.17;3.10;;;23.70;65.10;;;;;;4948387;28;20671;-92
2022/10/16 11:01:11;;;;;;;8.07;2.83;;;23.60;64.70;;;;;;4988485;28;20292;-90
2022/10/16 11:04:04;;;;;;;10.40;3.17;;;23.70;65.40;;;;;;4961524;28;20295;-93
2022/10/16 11:06:35;;;;;;;9.43;3.07;;;23.60;63.80;;;;;;4980845;28;20226;-92
2022/10/16 11:09:11;;;;;;;12.07;3.83;;;23.60;64.40;;;;;;4948156;29;20220;-93
2022/10/16 11:11:44;;;;;;;12.27;3.60;;;23.60;63.40;;;;;;4932626;28;20248;-92
2022/10/16 11:14:19;;;;;;;10.80;3.10;;;23.50;64.10;;;;;;4947471;29;20275;-92
2022/10/16 11:16:54;;;;;;;10.23;3.33;;;23.50;63.70;;;;;;4953639;29;20319;-91
2022/10/16 11:19:32;;;;;;;10.43;2.97;;;23.40;63.40;;;;;;4953504;28;20301;-92
2022/10/16 11:22:07;;;;;;;8.20;2.70;;;23.40;64.00;;;;;;4964138;28;20304;-91
2022/10/16 11:24:42;;;;;;;8.97;3.40;;;23.30;64.10;;;;;;4963279;28;20244;-92
2022/10/16 11:27:16;;;;;;;10.17;2.93;;;23.30;64.10;;;;;;4955550;29;20634;-92
2022/10/16 11:29:49;;;;;;;12.13;3.57;;;23.30;64.20;;;;;;4949721;28;20956;-92
2022/10/16 11:32:23;;;;;;;6.43;2.27;;;23.30;64.40;;;;;;4948128;28;20204;-92
2022/10/16 11:34:54;;;;;;;10.33;2.93;;;23.30;63.60;;;;;;4950515;28;20623;-92
2022/10/16 11:37:28;;;;;;;12.13;3.27;;;23.30;64.10;;;;;;4949960;28;20237;-91
2022/10/16 11:40:01;;;;;;;13.47;2.87;;;23.30;63.60;;;;;;4949239;29;20217;-91
2022/10/16 11:42:34;;;;;;;8.50;2.90;;;23.30;64.00;;;;;;5016453;28;20246;-91
2022/10/16 11:45:09;;;;;;;8.97;2.90;;;23.40;64.60;;;;;;4949471;28;20649;-92
2022/10/16 11:47:40;;;;;;;8.83;3.17;;;23.50;64.30;;;;;;4949442;29;20239;-91
2022/10/16 11:50:24;;;;;;;9.33;2.83;;;23.50;64.30;;;;;;4949644;28;20213;-92
2022/10/16 11:52:56;;;;;;;12.30;3.17;;;23.60;62.90;;;;;;4940835;29;20214;-92
2022/10/16 11:55:30;;;;;;;6.17;2.20;;;23.70;63.90;;;;;;4948193;28;20222;-92
2022/10/16 11:58:04;;;;;;;11.97;3.30;;;23.80;64.30;;;;;;4954378;29;20229;-93
2022/10/16 12:00:39;;;;;;;11.80;3.73;;;23.80;63.50;;;;;;4947086;28;20204;-93
2022/10/16 12:03:19;;;;;;;7.67;2.20;;;23.90;62.80;;;;;;4940335;29;20286;-93
2022/10/16 12:06:01;;;;;;;9.83;3.33;;;24.10;62.50;;;;;;4934428;28;20767;-92
2022/10/16 12:08:30;;;;;;;7.47;2.23;;;24.10;61.50;;;;;;4945696;28;20281;-92
2022/10/16 12:11:09;;;;;;;9.40;2.47;;;24.20;62.20;;;;;;4948563;28;20942;-91
2022/10/16 12:16:30;;;;;;;7.10;2.40;;;24.40;61.80;;;;;;4957541;28;20211;-91
2022/10/16 12:19:13;;;;;;;9.20;3.27;;;24.40;60.70;;;;;;4948757;28;20246;-92
2022/10/16 12:21:41;;;;;;;8.87;2.77;;;24.50;60.40;;;;;;4949785;29;20223;-91
2022/10/16 12:24:23;;;;;;;12.60;2.80;;;24.50;61.30;;;;;;4947839;29;20286;-91
2022/10/16 12:26:53;;;;;;;10.87;2.83;;;24.50;59.40;;;;;;4942634;28;20281;-92
2022/10/16 12:29:33;;;;;;;5.80;2.30;;;24.60;60.10;;;;;;4947523;28;20568;-92
2022/10/16 12:32:01;;;;;;;8.37;2.77;;;24.60;59.50;;;;;;4939404;28;20223;-92
2022/10/16 12:34:40;;;;;;;9.33;3.13;;;24.60;59.90;;;;;;4953237;29;20207;-91
2022/10/16 12:37:18;;;;;;;7.03;1.93;;;24.70;59.30;;;;;;4951209;28;20261;-92
2022/10/16 12:39:47;;;;;;;11.07;3.57;;;24.70;59.20;;;;;;4940451;29;20208;-93
2022/10/16 12:42:34;;;;;;;8.53;2.70;;;24.80;59.30;;;;;;4945178;28;20231;-92
2022/10/16 12:45:03;;;;;;;13.80;3.83;;;24.80;58.30;;;;;;4942118;28;20644;-90
2022/10/16 12:47:49;;;;;;;6.90;2.73;;;24.80;59.50;;;;;;4933257;29;20346;-91
2022/10/16 12:50:36;;;;;;;6.23;2.53;;;24.80;59.30;;;;;;4943896;29;20208;-90
2022/10/16 12:53:05;;;;;;;10.63;3.53;;;24.90;58.70;;;;;;4955844;28;20216;-90
2022/10/16 12:55:48;;;;;;;8.30;3.13;;;24.90;59.30;;;;;;4962548;29;20207;-91
2022/10/16 12:58:32;;;;;;;7.10;2.57;;;24.90;58.30;;;;;;4961302;28;20211;-91
2022/10/16 13:01:08;;;;;;;8.80;2.27;;;24.90;58.90;;;;;;4951674;28;20653;-92
2022/10/16 13:04:17;;;;;;;8.63;2.47;;;24.90;59.10;;;;;;4952490;28;20259;-92
2022/10/16 13:06:52;;;;;;;8.90;2.63;;;24.90;58.40;;;;;;4957994;28;20207;-92
2022/10/16 13:09:42;;;;;;;10.00;3.97;;;25.00;58.80;;;;;;4944265;28;20296;-91
2022/10/16 13:12:26;;;;;;;6.77;2.30;;;25.00;58.60;;;;;;4950469;29;20261;-90
2022/10/16 13:15:10;;;;;;;10.33;3.20;;;25.00;58.40;;;;;;4950209;28;20252;-92
2022/10/16 13:17:46;;;;;;;8.00;2.77;;;25.10;58.00;;;;;;4952024;28;20695;-91
2022/10/16 13:20:22;;;;;;;7.67;2.63;;;25.10;58.50;;;;;;4951157;28;20223;-91
2022/10/16 13:22:58;;;;;;;7.70;2.73;;;25.10;58.10;;;;;;4950533;28;20758;-92
2022/10/16 13:25:35;;;;;;;7.63;2.43;;;25.10;57.50;;;;;;4949205;29;20215;-91
2022/10/16 13:28:06;;;;;;;8.50;3.07;;;25.00;57.40;;;;;;4949746;29;20235;-92
2022/10/16 13:30:39;;;;;;;8.53;3.57;;;25.00;57.20;;;;;;4948608;29;20203;-92